createdAt,value
2022-10-05T00:00:46.072Z,62.15
2022-10-05T00:02:52.659Z,62.02
2022-10-05T00:04:57.431Z,62.27
2022-10-05T00:07:20.202Z,62.31
2022-10-05T00:09:22.692Z,62.04
2022-10-05T00:11:24.795Z,61.98
2022-10-05T00:13:29.917Z,62.58
2022-10-05T00:15:32.305Z,62.62
2022-10-05T00:17:35.386Z,62.08
2022-10-05T00:19:39.393Z,61.95
2022-10-05T00:21:41.418Z,62.49
2022-10-05T00:23:43.520Z,62.00
2022-10-05T00:25:46.263Z,61.97
2022-10-05T00:27:56.912Z,62.78
2022-10-05T00:30:02.677Z,62.56
2022-10-05T00:32:04.918Z,62.72
2022-10-05T00:34:07.229Z,63.12
2022-10-05T00:36:09.501Z,62.99
2022-10-05T00:38:11.538Z,62.71
2022-10-05T00:40:31.786Z,62.97
2022-10-05T00:42:43.110Z,62.51
2022-10-05T00:44:55.174Z,62.31
2022-10-05T00:47:04.044Z,62.28
2022-10-05T00:49:14.523Z,61.79
2022-10-05T00:51:36.643Z,61.88
2022-10-05T00:54:03.498Z,61.93
2022-10-05T00:56:25.891Z,61.71
2022-10-05T00:58:55.534Z,61.78
2022-10-05T01:01:15.493Z,61.80
2022-10-05T01:03:38.325Z,61.64
2022-10-05T01:05:52.173Z,61.28
2022-10-05T01:08:21.694Z,61.52
2022-10-05T01:10:34.437Z,61.23
2022-10-05T01:12:59.196Z,61.50
2022-10-05T01:15:04.692Z,60.90
2022-10-05T01:17:38.076Z,61.40
2022-10-05T01:20:09.987Z,61.58
2022-10-05T01:22:27.480Z,62.00
2022-10-05T01:24:44.734Z,61.69
2022-10-05T01:26:56.094Z,62.64
2022-10-05T01:29:16.624Z,62.40
2022-10-05T01:31:24.785Z,62.60
2022-10-05T01:33:36.168Z,62.53
2022-10-05T01:36:03.564Z,62.81
2022-10-05T01:38:37.102Z,63.06
2022-10-05T01:41:13.672Z,62.92
2022-10-05T01:43:36.479Z,62.45
2022-10-05T01:45:53.888Z,62.56
2022-10-05T01:48:10.076Z,62.90
2022-10-05T01:51:27.552Z,62.85
2022-10-05T01:53:48.091Z,63.38
2022-10-05T01:56:01.774Z,63.26
2022-10-05T01:58:35.189Z,63.47
2022-10-05T02:01:12.593Z,63.55
2022-10-05T02:03:24.761Z,63.32
2022-10-05T02:05:36.239Z,62.80
2022-10-05T02:07:43.006Z,62.98
2022-10-05T02:09:54.586Z,63.47
2022-10-05T02:12:03.781Z,63.46
2022-10-05T02:14:12.767Z,63.25
2022-10-05T02:16:22.306Z,63.10
2022-10-05T02:18:33.940Z,63.03
2022-10-05T02:20:41.531Z,62.32
2022-10-05T02:22:56.355Z,62.78
2022-10-05T02:25:03.696Z,62.44
2022-10-05T02:27:09.030Z,62.34
2022-10-05T02:29:16.769Z,61.88
2022-10-05T02:31:30.157Z,61.58
2022-10-05T02:34:16.770Z,61.78
2022-10-05T02:36:32.301Z,61.73
2022-10-05T02:38:51.929Z,62.14
2022-10-05T02:41:14.966Z,61.72
2022-10-05T02:43:23.649Z,62.14
2022-10-05T02:45:37.954Z,62.50
2022-10-05T02:48:00.640Z,62.01
2022-10-05T02:50:15.776Z,61.93
2022-10-05T02:52:45.213Z,62.42
2022-10-05T02:55:18.235Z,62.87
2022-10-05T02:57:38.801Z,62.37
2022-10-05T02:59:48.869Z,62.37
2022-10-05T03:01:54.758Z,62.08
2022-10-05T03:04:15.229Z,62.65
2022-10-05T03:06:23.709Z,62.47
2022-10-05T03:08:47.510Z,61.86
2022-10-05T03:11:26.825Z,62.47
2022-10-05T03:13:48.422Z,62.52
2022-10-05T03:15:55.079Z,62.59
2022-10-05T03:18:08.101Z,62.83
2022-10-05T03:20:22.104Z,62.54
2022-10-05T03:22:34.042Z,62.86
2022-10-05T03:24:41.889Z,62.54
2022-10-05T03:27:04.450Z,62.95
2022-10-05T03:29:25.037Z,63.10
2022-10-05T03:31:42.164Z,62.98
2022-10-05T03:33:56.245Z,63.07
2022-10-05T03:36:05.406Z,63.18
2022-10-05T03:38:10.346Z,63.29
2022-10-05T03:40:28.660Z,63.28
2022-10-05T03:42:57.165Z,63.74
2022-10-05T03:45:26.817Z,63.48
2022-10-05T03:47:52.381Z,63.42
2022-10-05T03:50:00.431Z,63.28
2022-10-05T03:52:10.676Z,63.28
2022-10-05T03:54:23.719Z,63.61
2022-10-05T03:56:41.022Z,63.61
2022-10-05T03:58:53.121Z,63.24
2022-10-05T04:01:00.856Z,63.63
2022-10-05T04:03:35.543Z,63.97
2022-10-05T04:05:52.220Z,63.39
2022-10-05T04:07:59.461Z,63.29
2022-10-05T04:10:09.357Z,63.24
2022-10-05T04:12:38.980Z,64.00
2022-10-05T04:14:55.434Z,63.82
2022-10-05T04:17:05.085Z,63.87
2022-10-05T04:19:16.925Z,63.79
2022-10-05T04:21:28.696Z,64.04
2022-10-05T04:23:43.961Z,63.45
2022-10-05T04:26:02.329Z,63.63
2022-10-05T04:28:32.375Z,63.43
2022-10-05T04:30:42.193Z,63.51
2022-10-05T04:32:50.204Z,63.38
2022-10-05T04:34:54.571Z,63.32
2022-10-05T04:37:03.119Z,63.72
2022-10-05T04:39:21.366Z,63.74
2022-10-05T04:41:24.515Z,63.31
2022-10-05T04:44:05.679Z,63.21
2022-10-05T04:46:19.274Z,63.29
2022-10-05T04:48:32.953Z,63.11
2022-10-05T04:50:55.461Z,63.20
2022-10-05T04:53:28.200Z,63.42
2022-10-05T04:55:45.533Z,63.33
2022-10-05T04:58:13.480Z,63.55
2022-10-05T05:00:23.080Z,63.67
2022-10-05T05:02:41.248Z,63.63
2022-10-05T05:05:06.100Z,63.68
2022-10-05T05:07:49.366Z,63.88
2022-10-05T05:10:05.486Z,63.70
2022-10-05T05:12:38.703Z,63.74
2022-10-05T05:14:43.681Z,63.80
2022-10-05T05:17:08.538Z,63.80
2022-10-05T05:19:17.301Z,64.12
2022-10-05T05:21:41.138Z,64.38
2022-10-05T05:24:05.677Z,64.73
2022-10-05T05:26:22.651Z,64.24
2022-10-05T05:28:47.221Z,64.35
2022-10-05T05:30:57.637Z,63.85
2022-10-05T05:33:16.739Z,63.95
2022-10-05T05:35:40.059Z,64.48
2022-10-05T05:38:11.918Z,63.84
2022-10-05T05:40:24.065Z,63.92
2022-10-05T05:42:49.761Z,63.53
2022-10-05T05:44:58.738Z,63.64
2022-10-05T05:47:11.089Z,63.41
2022-10-05T05:49:36.122Z,63.89
2022-10-05T05:51:46.005Z,63.56
2022-10-05T05:53:55.997Z,63.11
2022-10-05T06:00:15.518Z,62.61
2022-10-05T06:03:05.311Z,62.73
2022-10-05T06:05:32.169Z,62.86
2022-10-05T06:07:38.100Z,62.66
2022-10-05T06:10:07.921Z,62.37
2022-10-05T06:12:27.239Z,62.40
2022-10-05T06:14:35.342Z,62.64
2022-10-05T06:16:47.421Z,62.66
2022-10-05T06:18:59.279Z,62.38
2022-10-05T06:21:24.575Z,62.09
2022-10-05T06:23:35.925Z,62.33
2022-10-05T06:26:10.915Z,61.43
2022-10-05T06:28:19.858Z,61.48
2022-10-05T06:30:30.955Z,61.65
2022-10-05T06:32:33.603Z,62.19
2022-10-05T06:35:11.860Z,61.87
2022-10-05T06:37:34.151Z,62.00
2022-10-05T06:40:00.795Z,61.72
2022-10-05T06:42:13.631Z,61.77
2022-10-05T06:44:53.608Z,61.87
2022-10-05T06:47:29.928Z,60.68
2022-10-05T06:49:58.033Z,61.08
2022-10-05T06:52:25.645Z,60.50
2022-10-05T06:55:00.790Z,61.08
2022-10-05T06:57:08.738Z,61.17
2022-10-05T06:59:40.383Z,60.24
2022-10-05T07:01:51.740Z,60.24
2022-10-05T07:03:57.566Z,59.90
2022-10-05T07:06:07.372Z,60.16
2022-10-05T07:08:19.743Z,60.09
2022-10-05T07:10:30.670Z,60.35
2022-10-05T07:12:47.199Z,59.49
2022-10-05T07:14:52.275Z,60.06
2022-10-05T07:17:20.519Z,59.53
2022-10-05T07:19:35.222Z,58.92
2022-10-05T07:21:45.935Z,59.07
2022-10-05T07:24:13.224Z,58.56
2022-10-05T07:26:27.584Z,58.82
2022-10-05T07:28:48.098Z,58.67
2022-10-05T07:31:00.616Z,58.08
2022-10-05T07:33:18.157Z,58.69
2022-10-05T07:35:54.450Z,58.35
2022-10-05T07:38:02.052Z,58.47
2022-10-05T07:40:11.230Z,58.10
2022-10-05T07:42:52.223Z,58.38
2022-10-05T07:45:18.301Z,57.25
2022-10-05T07:47:32.054Z,57.42
2022-10-05T07:49:42.016Z,57.32
2022-10-05T07:51:58.620Z,57.89
2022-10-05T07:54:25.863Z,57.62
2022-10-05T07:56:50.625Z,58.08
2022-10-05T07:59:07.912Z,58.46
2022-10-05T08:01:25.040Z,57.67
2022-10-05T08:03:52.499Z,57.83
2022-10-05T08:05:55.298Z,58.26
2022-10-05T08:08:24.935Z,57.11
2022-10-05T08:10:38.499Z,56.75
2022-10-05T08:13:04.523Z,56.49
2022-10-05T08:15:20.892Z,56.33
2022-10-05T08:18:00.638Z,56.11
2022-10-05T08:20:06.496Z,56.91
2022-10-05T08:22:19.798Z,55.76
2022-10-05T08:24:38.676Z,55.86
2022-10-05T08:27:06.555Z,55.41
2022-10-05T08:29:30.063Z,55.35
2022-10-05T08:31:33.853Z,56.44
2022-10-05T08:34:00.600Z,51.15
2022-10-05T08:36:14.621Z,51.93
2022-10-05T08:38:20.233Z,53.65
2022-10-05T08:41:01.226Z,52.83
2022-10-05T08:43:35.045Z,51.93
2022-10-05T08:46:08.442Z,51.94
2022-10-05T08:48:36.416Z,51.76
2022-10-05T08:50:38.262Z,52.88
2022-10-05T08:52:43.367Z,52.49
2022-10-05T08:55:10.382Z,51.70
2022-10-05T08:57:15.477Z,51.12
2022-10-05T08:59:44.674Z,51.89
2022-10-05T09:02:28.349Z,51.27
2022-10-05T09:04:48.302Z,50.97
2022-10-05T09:07:01.450Z,51.62
2022-10-05T09:09:18.689Z,51.51
2022-10-05T09:11:26.959Z,51.45
2022-10-05T09:13:40.819Z,50.73
2022-10-05T09:16:02.996Z,49.86
2022-10-05T09:18:42.469Z,49.91
2022-10-05T09:20:55.348Z,49.28
2022-10-05T09:23:00.231Z,50.30
2022-10-05T09:25:21.277Z,46.91
2022-10-05T09:27:36.534Z,48.34
2022-10-05T09:30:20.297Z,46.92
2022-10-05T09:32:59.318Z,48.51
2022-10-05T09:35:23.065Z,50.23
2022-10-05T09:37:50.257Z,48.34
2022-10-05T09:40:35.139Z,45.87
2022-10-05T09:43:17.745Z,47.31
2022-10-05T09:45:38.378Z,44.79
2022-10-05T09:47:50.682Z,45.91
2022-10-05T09:50:18.849Z,45.76
2022-10-05T09:53:11.025Z,46.05
2022-10-05T09:55:46.935Z,45.45
2022-10-05T09:57:55.573Z,46.03
2022-10-05T09:59:57.581Z,46.29
2022-10-05T10:02:14.156Z,46.49
2022-10-05T10:04:29.759Z,45.57
2022-10-05T10:07:17.100Z,42.75
2022-10-05T10:09:28.393Z,45.02
2022-10-05T10:11:42.025Z,44.85
2022-10-05T10:13:47.076Z,45.65
2022-10-05T10:15:57.800Z,44.32
2022-10-05T10:18:38.162Z,43.96
2022-10-05T10:20:48.984Z,44.21
2022-10-05T10:22:59.933Z,44.47
2022-10-05T10:25:43.538Z,43.60
2022-10-05T10:27:51.702Z,44.68
2022-10-05T10:30:12.315Z,45.57
2022-10-05T10:32:17.430Z,44.04
2022-10-05T10:35:10.146Z,44.97
2022-10-05T10:37:21.103Z,40.85
2022-10-05T10:39:45.299Z,42.61
2022-10-05T10:42:02.682Z,42.14
2022-10-05T10:44:52.651Z,42.84
2022-10-05T10:47:22.392Z,42.43
2022-10-05T10:49:59.500Z,41.98
2022-10-05T10:52:01.516Z,44.15
2022-10-05T10:54:22.312Z,42.91
2022-10-05T10:56:54.703Z,43.40
2022-10-05T10:59:05.478Z,44.41
2022-10-05T11:01:29.296Z,43.22
2022-10-05T11:03:43.283Z,40.40
2022-10-05T11:06:01.562Z,40.34
2022-10-05T11:08:12.751Z,41.91
2022-10-05T11:10:31.701Z,40.41
2022-10-05T11:12:51.641Z,40.78
2022-10-05T11:15:16.905Z,41.46
2022-10-05T11:17:18.923Z,42.95
2022-10-05T11:20:20.853Z,43.60
2022-10-05T11:22:32.741Z,44.28
2022-10-05T11:25:07.197Z,43.19
2022-10-05T11:27:15.083Z,43.81
2022-10-05T11:29:23.068Z,42.32
2022-10-05T11:32:04.146Z,44.41
2022-10-05T11:34:41.474Z,43.52
2022-10-05T11:37:10.944Z,43.61
2022-10-05T11:39:44.765Z,43.44
2022-10-05T11:42:11.696Z,42.86
2022-10-05T11:44:31.990Z,44.10
2022-10-05T11:46:49.671Z,42.44
2022-10-05T11:49:34.452Z,42.23
2022-10-05T11:51:59.238Z,41.84
2022-10-05T11:54:10.334Z,40.92
2022-10-05T11:56:34.107Z,40.82
2022-10-05T11:58:59.752Z,40.69
2022-10-05T12:01:20.293Z,41.06
2022-10-05T12:03:42.675Z,41.73
2022-10-05T12:06:13.970Z,40.86
2022-10-05T12:08:24.584Z,40.24
2022-10-05T12:10:52.566Z,40.21
2022-10-05T12:12:57.774Z,40.89
2022-10-05T12:15:35.273Z,39.69
2022-10-05T12:18:06.931Z,40.96
2022-10-05T12:20:35.843Z,41.25
2022-10-05T12:22:49.785Z,41.80
2022-10-05T12:25:11.886Z,41.13
2022-10-05T12:27:27.140Z,40.02
2022-10-05T12:29:51.932Z,39.50
2022-10-05T12:32:33.793Z,41.21
2022-10-05T12:35:01.441Z,41.00
2022-10-05T12:37:29.094Z,39.98
2022-10-05T12:39:49.975Z,41.05
2022-10-05T12:42:05.866Z,41.11
2022-10-05T12:44:21.562Z,41.86
2022-10-05T12:46:44.349Z,41.71
2022-10-05T12:49:05.004Z,40.15
2022-10-05T12:51:20.216Z,39.70
2022-10-05T12:53:28.829Z,40.99
2022-10-05T12:55:59.912Z,37.53
2022-10-05T12:58:23.118Z,37.76
2022-10-05T13:00:32.671Z,39.33
2022-10-05T13:02:44.099Z,38.73
2022-10-05T13:05:12.035Z,38.61
2022-10-05T13:07:48.591Z,40.10
2022-10-05T13:10:09.229Z,40.25
2022-10-05T13:12:26.726Z,39.97
2022-10-05T13:14:31.783Z,39.98
2022-10-05T13:16:55.295Z,38.71
2022-10-05T13:19:16.179Z,38.45
2022-10-05T13:21:30.336Z,38.15
2022-10-05T13:23:57.549Z,37.86
2022-10-05T13:26:08.940Z,39.12
2022-10-05T13:28:18.059Z,39.61
2022-10-05T13:30:22.108Z,39.79
2022-10-05T13:32:41.238Z,38.79
2022-10-05T13:34:50.691Z,39.35
2022-10-05T13:37:17.548Z,39.40
2022-10-05T13:39:47.177Z,39.99
2022-10-05T13:42:15.522Z,40.60
2022-10-05T13:44:34.138Z,39.25
2022-10-05T13:46:54.090Z,39.76
2022-10-05T13:49:18.278Z,40.02
2022-10-05T13:51:38.752Z,40.46
2022-10-05T13:54:14.823Z,39.65
2022-10-05T13:56:34.713Z,39.61
2022-10-05T13:58:45.234Z,40.60
2022-10-05T14:00:53.107Z,40.66
2022-10-05T14:02:57.729Z,40.40
2022-10-05T14:05:02.848Z,40.18
2022-10-05T14:07:34.167Z,39.60
2022-10-05T14:09:36.220Z,40.18
2022-10-05T14:11:51.924Z,40.34
2022-10-05T14:14:01.603Z,40.52
2022-10-05T14:16:22.400Z,40.75
2022-10-05T14:18:27.598Z,41.18
2022-10-05T14:20:34.325Z,41.08
2022-10-05T14:22:42.364Z,41.16
2022-10-05T14:24:52.538Z,41.30
2022-10-05T14:26:56.656Z,41.36
2022-10-05T14:29:17.877Z,41.57
2022-10-05T14:31:32.129Z,41.79
2022-10-05T14:33:36.074Z,41.83
2022-10-05T14:35:44.058Z,41.93
2022-10-05T14:37:58.386Z,42.21
2022-10-05T14:40:22.439Z,41.98
2022-10-05T14:42:29.145Z,42.02
2022-10-05T14:46:36.760Z,42.57
2022-10-05T14:48:43.388Z,42.43
2022-10-05T14:50:55.403Z,42.15
2022-10-05T14:53:10.502Z,42.46
2022-10-05T14:55:57.110Z,42.63
2022-10-05T14:58:02.406Z,42.82
2022-10-05T15:00:13.442Z,42.82
2022-10-05T15:02:48.206Z,42.52
2022-10-05T15:05:25.515Z,42.92
2022-10-05T15:07:39.083Z,42.99
2022-10-05T15:10:16.051Z,43.26
2022-10-05T15:12:39.012Z,43.31
2022-10-05T15:14:45.050Z,43.17
2022-10-05T15:16:51.741Z,43.34
2022-10-05T15:19:17.171Z,43.29
2022-10-05T15:21:31.974Z,43.73
2022-10-05T15:23:34.043Z,43.28
2022-10-05T15:25:43.224Z,43.96
2022-10-05T15:28:11.532Z,43.83
2022-10-05T15:30:21.435Z,43.59
2022-10-05T15:32:51.863Z,44.75
2022-10-05T15:35:09.613Z,44.82
2022-10-05T15:37:37.131Z,44.19
2022-10-05T15:39:50.294Z,44.11
2022-10-05T15:42:02.086Z,44.46
2022-10-05T15:44:36.487Z,44.85
2022-10-05T15:46:44.306Z,43.80
2022-10-05T15:48:56.062Z,45.01
2022-10-05T15:51:15.385Z,45.08
2022-10-05T15:53:38.627Z,43.76
2022-10-05T15:55:53.411Z,44.44
2022-10-05T15:58:21.122Z,44.49
2022-10-05T16:00:25.563Z,44.33
2022-10-05T16:03:05.463Z,46.07
2022-10-05T16:05:56.400Z,44.55
2022-10-05T16:08:16.950Z,45.00
2022-10-05T16:10:21.894Z,44.77
2022-10-05T16:12:26.862Z,45.31
2022-10-05T16:14:42.602Z,45.60
2022-10-05T16:17:22.005Z,43.97
2022-10-05T16:19:39.470Z,44.56
2022-10-05T16:22:11.143Z,46.82
2022-10-05T16:24:47.596Z,45.70
2022-10-05T16:27:00.329Z,45.24
2022-10-05T16:29:17.835Z,44.52
2022-10-05T16:31:31.351Z,45.58
2022-10-05T16:34:00.778Z,45.66
2022-10-05T16:36:32.170Z,45.74
2022-10-05T16:38:38.615Z,45.25
2022-10-05T16:41:18.199Z,44.93
2022-10-05T16:43:46.530Z,45.51
2022-10-05T16:46:30.066Z,45.58
2022-10-05T16:49:12.353Z,45.42
2022-10-05T16:51:52.222Z,45.51
2022-10-05T16:54:00.145Z,45.49
2022-10-05T16:56:07.045Z,45.40
2022-10-05T16:58:25.620Z,46.30
2022-10-05T17:00:45.683Z,46.02
2022-10-05T17:03:05.860Z,46.41
2022-10-05T17:05:26.371Z,46.93
2022-10-05T17:07:43.722Z,47.26
2022-10-05T17:10:08.410Z,46.69
2022-10-05T17:12:53.269Z,46.37
2022-10-05T17:15:15.001Z,46.52
2022-10-05T17:18:01.481Z,46.86
2022-10-05T17:20:21.200Z,46.64
2022-10-05T17:22:39.867Z,46.81
2022-10-05T17:24:56.904Z,46.31
2022-10-05T17:27:15.983Z,46.60
2022-10-05T17:29:47.670Z,47.37
2022-10-05T17:32:11.391Z,47.38
2022-10-05T17:34:16.621Z,48.09
2022-10-05T17:36:18.997Z,47.13
2022-10-05T17:38:23.829Z,47.73
2022-10-05T17:40:28.819Z,48.63
2022-10-05T17:42:34.259Z,47.90
2022-10-05T17:44:36.038Z,47.73
2022-10-05T17:46:39.367Z,48.13
2022-10-05T17:48:44.155Z,48.48
2022-10-05T17:51:07.269Z,48.82
2022-10-05T17:53:52.954Z,49.80
2022-10-05T17:56:05.311Z,49.51
2022-10-05T17:59:00.063Z,49.20
2022-10-05T18:01:01.783Z,48.60
2022-10-05T18:03:37.961Z,51.33
2022-10-05T18:05:40.324Z,49.25
2022-10-05T18:07:48.862Z,50.64
2022-10-05T18:10:00.391Z,51.19
2022-10-05T18:12:18.064Z,52.18
2022-10-05T18:14:55.000Z,50.65
2022-10-05T18:17:04.038Z,50.69
2022-10-05T18:19:16.716Z,51.42
2022-10-05T18:22:17.561Z,51.44
2022-10-05T18:24:32.495Z,50.88
2022-10-05T18:26:53.152Z,50.36
2022-10-05T18:29:36.735Z,50.23
2022-10-05T18:32:00.523Z,50.52
2022-10-05T18:34:14.050Z,50.13
2022-10-05T18:36:16.281Z,50.63
2022-10-05T18:38:49.226Z,50.50
2022-10-05T18:41:12.516Z,50.45
2022-10-05T18:43:33.083Z,50.61
2022-10-05T18:45:53.270Z,50.23
2022-10-05T18:48:31.261Z,50.40
2022-10-05T18:50:53.849Z,51.77
2022-10-05T18:53:28.526Z,52.70
2022-10-05T18:55:36.321Z,51.00
2022-10-05T18:58:00.374Z,50.82
2022-10-05T19:00:15.354Z,51.52
2022-10-05T19:02:30.301Z,51.57
2022-10-05T19:05:09.184Z,51.05
2022-10-05T19:07:26.927Z,51.21
2022-10-05T19:09:44.087Z,51.41
2022-10-05T19:12:12.241Z,51.91
2022-10-05T19:15:01.030Z,51.77
2022-10-05T19:17:30.967Z,51.17
2022-10-05T19:19:51.418Z,51.78
2022-10-05T19:22:13.317Z,51.68
2022-10-05T19:24:41.841Z,51.84
2022-10-05T19:27:14.433Z,51.58
2022-10-05T19:29:57.669Z,51.93
2022-10-05T19:32:15.942Z,51.95
2022-10-05T19:34:42.384Z,51.61
2022-10-05T19:37:14.909Z,52.02
2022-10-05T19:39:33.769Z,51.67
2022-10-05T19:41:46.725Z,51.77
2022-10-05T19:44:27.423Z,51.72
2022-10-05T19:46:55.489Z,52.54
2022-10-05T19:49:00.327Z,51.78
2022-10-05T19:51:11.484Z,52.02
2022-10-05T19:53:45.949Z,52.30
2022-10-05T19:55:48.179Z,51.72
2022-10-05T19:58:01.505Z,52.27
2022-10-05T20:00:04.653Z,52.30
2022-10-05T20:02:06.891Z,52.21
2022-10-05T20:04:10.757Z,52.10
2022-10-05T20:06:13.608Z,51.85
2022-10-05T20:08:17.823Z,52.49
2022-10-05T20:10:29.597Z,52.31
2022-10-05T20:13:03.992Z,53.41
2022-10-05T20:15:27.216Z,52.71
2022-10-05T20:17:51.930Z,52.52
2022-10-05T20:20:12.577Z,52.94
2022-10-05T20:22:34.643Z,54.32
2022-10-05T20:24:50.037Z,53.46
2022-10-05T20:27:09.556Z,52.83
2022-10-05T20:29:12.616Z,53.39
2022-10-05T20:31:14.823Z,53.94
2022-10-05T20:33:17.007Z,53.58
2022-10-05T20:35:23.902Z,53.70
2022-10-05T20:37:26.372Z,53.94
2022-10-05T20:39:28.499Z,53.49
2022-10-05T20:41:30.722Z,53.70
2022-10-05T20:43:32.741Z,54.04
2022-10-05T20:45:43.435Z,54.03
2022-10-05T20:47:47.477Z,54.41
2022-10-05T20:49:49.821Z,54.16
2022-10-05T20:51:55.820Z,53.83
2022-10-05T20:53:58.774Z,54.11
2022-10-05T20:56:02.695Z,53.86
2022-10-05T20:58:04.851Z,54.31
2022-10-05T21:00:08.154Z,54.28
2022-10-05T21:02:10.624Z,54.14
2022-10-05T21:04:12.900Z,54.06
2022-10-05T21:06:15.056Z,54.46
2022-10-05T21:08:17.972Z,54.60
2022-10-05T21:10:20.070Z,54.63
2022-10-05T21:12:22.693Z,54.92
2022-10-05T21:14:33.069Z,54.65
2022-10-05T21:16:38.245Z,54.96
2022-10-05T21:18:40.985Z,54.91
2022-10-05T21:20:43.118Z,55.39
2022-10-05T21:22:45.173Z,55.49
2022-10-05T21:24:47.429Z,55.47
2022-10-05T21:26:52.462Z,54.99
2022-10-05T21:28:54.757Z,55.11
2022-10-05T21:30:56.936Z,55.21
2022-10-05T21:32:59.009Z,55.05
2022-10-05T21:35:02.267Z,55.35
2022-10-05T21:37:05.001Z,55.20
2022-10-05T21:39:07.267Z,55.48
2022-10-05T21:41:09.358Z,55.51
2022-10-05T21:43:13.502Z,55.30
2022-10-05T21:45:15.626Z,55.81
2022-10-05T21:47:17.848Z,55.29
2022-10-05T21:49:20.229Z,55.26
2022-10-05T21:51:25.397Z,56.60
2022-10-05T21:53:32.278Z,57.54
2022-10-05T21:55:36.110Z,57.64
2022-10-05T21:57:38.950Z,57.19
2022-10-05T21:59:41.417Z,58.50
2022-10-05T22:01:43.670Z,57.33
2022-10-05T22:03:45.983Z,57.58
2022-10-05T22:06:49.029Z,58.21
2022-10-05T22:08:51.503Z,57.33
2022-10-05T22:10:56.833Z,57.86
2022-10-05T22:13:04.935Z,57.79
2022-10-05T22:15:07.627Z,57.54
2022-10-05T22:17:22.504Z,58.26
2022-10-05T22:19:25.307Z,57.92
2022-10-05T22:21:27.327Z,57.71
2022-10-05T22:23:29.489Z,57.43
2022-10-05T22:25:33.971Z,57.81
2022-10-05T22:27:36.605Z,57.64
2022-10-05T22:29:39.139Z,57.67
2022-10-05T22:31:41.492Z,57.59
2022-10-05T22:33:44.726Z,57.83
2022-10-05T22:35:49.648Z,57.90
2022-10-05T22:37:51.694Z,57.58
2022-10-05T22:39:55.369Z,57.91
2022-10-05T22:41:58.052Z,57.82
2022-10-05T22:44:03.197Z,58.14
2022-10-05T22:46:13.041Z,58.64
2022-10-05T22:48:16.279Z,58.08
2022-10-05T22:50:18.401Z,58.60
2022-10-05T22:52:21.437Z,58.80
2022-10-05T22:54:27.451Z,58.04
2022-10-05T22:56:31.518Z,58.40
2022-10-05T22:58:33.904Z,58.22
2022-10-05T23:00:59.179Z,57.96
2022-10-05T23:02:59.802Z,58.11
2022-10-05T23:05:01.934Z,58.21
2022-10-05T23:07:04.576Z,58.21
2022-10-05T23:09:06.724Z,58.27
2022-10-05T23:11:12.932Z,58.10
2022-10-05T23:13:16.204Z,57.87
2022-10-05T23:15:18.555Z,57.65
2022-10-05T23:17:21.281Z,57.89
2022-10-05T23:19:24.061Z,57.30
2022-10-05T23:21:29.136Z,57.82
2022-10-05T23:23:31.203Z,57.29
2022-10-05T23:25:33.507Z,57.07
2022-10-05T23:27:39.967Z,56.92
2022-10-05T23:29:42.125Z,57.06
2022-10-05T23:31:44.144Z,57.11
2022-10-05T23:33:46.499Z,56.82
2022-10-05T23:35:48.488Z,57.00
2022-10-05T23:37:51.152Z,57.18
2022-10-05T23:39:56.007Z,56.68
2022-10-05T23:42:00.105Z,56.79
2022-10-05T23:44:02.057Z,57.30
2022-10-05T23:46:06.651Z,57.31
2022-10-05T23:48:08.703Z,57.22
2022-10-05T23:50:10.937Z,57.22
2022-10-05T23:52:13.402Z,57.55
2022-10-05T23:54:16.549Z,57.44
2022-10-05T23:56:19.774Z,58.01
2022-10-05T23:58:23.203Z,57.78
